Time;durP1;ratioP1;P1;durP2;ratioP2;P2;SDS_P1;SDS_P2;PMS_P1;PMS_P2;Temp;Humidity;BMP_temperature;BMP_pressure;BME280_temperature;BME280_humidity;BME280_pressure;Samples;Min_cycle;Max_cycle;Signal;HPM_P1;HPM_P2
2023/02/18 00:01:26;;;;;;;1.97;1.20;;;13.70;99.90;;;;;;4986299;28;20976;-71
2023/02/18 00:03:52;;;;;;;1.20;1.00;;;13.60;99.90;;;;;;4986539;28;20461;-70
2023/02/18 00:06:23;;;;;;;2.10;1.27;;;13.60;99.90;;;;;;4986116;28;20469;-71
2023/02/18 00:08:50;;;;;;;1.27;1.00;;;13.50;99.90;;;;;;4987915;28;20720;-71
2023/02/18 00:11:17;;;;;;;1.40;1.20;;;13.40;99.90;;;;;;4989009;28;20558;-72
2023/02/18 00:13:43;;;;;;;2.23;1.20;;;13.50;99.90;;;;;;4986211;28;20462;-73
2023/02/18 00:16:11;;;;;;;1.50;1.10;;;13.60;99.90;;;;;;4986073;28;20477;-72
2023/02/18 00:18:37;;;;;;;1.67;0.90;;;13.70;99.90;;;;;;4986113;28;20417;-71
2023/02/18 00:21:04;;;;;;;1.07;0.90;;;13.60;99.90;;;;;;4986215;28;20461;-73
2023/02/18 00:23:30;;;;;;;1.20;1.10;;;13.70;99.90;;;;;;4986436;28;20416;-72
2023/02/18 00:26:08;;;;;;;1.47;1.00;;;13.60;99.90;;;;;;4985799;28;20438;-74
2023/02/18 00:28:34;;;;;;;1.30;1.00;;;13.60;99.90;;;;;;4987047;28;20168;-72
2023/02/18 00:31:09;;;;;;;0.90;0.80;;;13.50;99.90;;;;;;4985843;28;20419;-72
2023/02/18 00:33:35;;;;;;;1.20;0.90;;;13.40;99.90;;;;;;4985856;28;20426;-73
2023/02/18 00:36:07;;;;;;;1.40;1.10;;;13.50;99.90;;;;;;4968379;28;20825;-71
2023/02/18 00:38:33;;;;;;;0.80;0.70;;;13.60;99.90;;;;;;4985929;28;20211;-72
2023/02/18 00:43:28;;;;;;;1.20;0.90;;;13.50;99.90;;;;;;4948777;28;20283;-68
2023/02/18 00:45:54;;;;;;;1.10;1.00;;;13.60;99.90;;;;;;4946694;28;20413;-71
2023/02/18 00:48:20;;;;;;;1.13;1.00;;;13.40;99.90;;;;;;4947070;28;20256;-72
2023/02/18 00:50:46;;;;;;;0.93;0.83;;;13.30;99.90;;;;;;4947717;28;20178;-69
2023/02/18 00:53:12;;;;;;;1.10;1.00;;;13.60;99.90;;;;;;4927309;28;20447;-72
2023/02/18 00:55:43;;;;;;;1.20;1.00;;;13.70;99.90;;;;;;4927875;29;20184;-68
2023/02/18 00:58:09;;;;;;;1.10;1.00;;;13.70;99.90;;;;;;4928002;29;20408;-72
2023/02/18 01:00:35;;;;;;;1.10;1.00;;;13.50;99.90;;;;;;4928504;29;20766;-69
2023/02/18 01:03:01;;;;;;;1.43;1.20;;;13.60;99.90;;;;;;4926525;29;20442;-69
2023/02/18 01:05:26;;;;;;;1.23;1.13;;;13.60;99.90;;;;;;4928077;29;20183;-70
2023/02/18 01:07:52;;;;;;;1.27;0.97;;;13.50;99.90;;;;;;4927700;29;20182;-72
2023/02/18 01:10:17;;;;;;;1.30;1.10;;;13.40;99.90;;;;;;4927836;29;20269;-74
2023/02/18 01:12:43;;;;;;;1.20;1.10;;;13.40;99.90;;;;;;4927341;29;20789;-71
2023/02/18 01:15:12;;;;;;;1.80;1.27;;;13.40;99.90;;;;;;4930935;29;20188;-71
2023/02/18 01:17:38;;;;;;;2.07;1.37;;;13.50;99.90;;;;;;4946872;28;20181;-71
2023/02/18 01:20:04;;;;;;;1.73;1.00;;;13.60;99.90;;;;;;4946562;28;20905;-70
2023/02/18 01:22:29;;;;;;;1.37;1.27;;;13.70;99.90;;;;;;4929728;29;20240;-71
2023/02/18 01:24:55;;;;;;;1.20;1.10;;;13.60;99.90;;;;;;4927638;29;20419;-72
2023/02/18 01:27:21;;;;;;;1.40;1.30;;;13.60;99.90;;;;;;4942661;29;20272;-70
2023/02/18 01:29:47;;;;;;;1.40;1.20;;;13.50;99.90;;;;;;4942016;28;20195;-70
2023/02/18 01:32:12;;;;;;;1.90;1.27;;;13.40;99.90;;;;;;4935667;29;20267;-74
2023/02/18 01:34:38;;;;;;;1.20;1.10;;;13.50;99.90;;;;;;4946813;28;20217;-71
2023/02/18 01:37:03;;;;;;;1.13;1.00;;;13.50;99.90;;;;;;4946242;28;20195;-70
2023/02/18 01:39:29;;;;;;;1.20;1.10;;;13.60;99.90;;;;;;4946425;28;20186;-70
2023/02/18 01:41:54;;;;;;;1.00;0.90;;;13.50;99.90;;;;;;4945627;28;20238;-70
2023/02/18 01:44:24;;;;;;;1.57;1.47;;;13.60;99.90;;;;;;4946161;28;20180;-70
2023/02/18 01:46:50;;;;;;;1.67;1.50;;;13.50;99.90;;;;;;4946362;28;20197;-71
2023/02/18 01:49:24;;;;;;;1.67;1.40;;;13.50;99.90;;;;;;4933552;28;20641;-70
2023/02/18 01:51:56;;;;;;;1.20;1.10;;;13.50;99.90;;;;;;4927295;29;20438;-70
2023/02/18 01:54:28;;;;;;;2.03;1.47;;;13.40;99.90;;;;;;4927191;29;21059;-73
2023/02/18 01:57:04;;;;;;;1.00;0.90;;;13.40;99.90;;;;;;4932305;29;20433;-74
2023/02/18 01:59:37;;;;;;;1.67;1.40;;;13.40;99.90;;;;;;4927733;28;20453;-70
2023/02/18 02:02:05;;;;;;;1.60;1.40;;;13.20;99.90;;;;;;4942851;28;20469;-70
2023/02/18 02:04:31;;;;;;;1.33;1.23;;;13.30;99.90;;;;;;4925961;28;20604;-72
2023/02/18 02:06:57;;;;;;;2.10;1.90;;;13.30;99.90;;;;;;4926576;29;20421;-70
2023/02/18 02:09:26;;;;;;;2.13;1.40;;;13.20;99.90;;;;;;4926970;29;20632;-69
2023/02/18 02:12:16;;;;;;;2.10;1.70;;;13.20;99.90;;;;;;4926618;29;20267;-72
2023/02/18 02:14:50;;;;;;;2.00;1.80;;;13.10;99.90;;;;;;4926353;29;20418;-70
2023/02/18 02:17:36;;;;;;;2.13;1.93;;;12.90;99.90;;;;;;4941229;28;20445;-72
2023/02/18 02:20:50;;;;;;;1.83;1.50;;;13.00;99.90;;;;;;4926627;29;20819;-70
2023/02/18 02:23:34;;;;;;;1.80;1.50;;;13.10;99.90;;;;;;4929911;29;20437;-70
2023/02/18 02:26:42;;;;;;;1.80;1.60;;;13.00;99.90;;;;;;4925995;29;20412;-71
2023/02/18 02:29:08;;;;;;;1.53;1.37;;;13.10;99.90;;;;;;4926153;28;20761;-70
2023/02/18 02:31:52;;;;;;;2.10;1.80;;;13.30;99.90;;;;;;4926464;29;20444;-70
2023/02/18 02:34:36;;;;;;;1.60;1.50;;;13.30;99.90;;;;;;4932633;29;20724;-71
2023/02/18 02:37:10;;;;;;;1.23;1.10;;;13.40;99.90;;;;;;4945557;28;20405;-70
2023/02/18 02:39:54;;;;;;;1.13;1.03;;;13.60;99.90;;;;;;4945164;28;20536;-70
2023/02/18 02:42:33;;;;;;;2.13;1.50;;;13.60;99.90;;;;;;4945147;28;20472;-70
2023/02/18 02:45:27;;;;;;;1.50;1.30;;;13.50;99.90;;;;;;4937272;28;20946;-70
2023/02/18 02:48:36;;;;;;;1.50;1.23;;;13.30;99.90;;;;;;4926195;29;20410;-69
2023/02/18 02:51:11;;;;;;;1.60;1.50;;;13.30;99.90;;;;;;4943108;28;20433;-70
2023/02/18 02:53:40;;;;;;;2.20;1.40;;;13.30;99.90;;;;;;4926177;29;20423;-71
2023/02/18 02:56:13;;;;;;;1.63;1.13;;;13.30;99.90;;;;;;4925931;29;20417;-73
2023/02/18 02:58:38;;;;;;;1.47;1.37;;;13.30;99.90;;;;;;4925787;29;20424;-68
2023/02/18 03:01:15;;;;;;;1.93;1.70;;;13.30;99.90;;;;;;4925013;29;20828;-70
2023/02/18 03:04:20;;;;;;;1.30;1.20;;;13.30;99.90;;;;;;4940961;28;20720;-71
2023/02/18 03:07:18;;;;;;;1.50;1.40;;;13.30;99.90;;;;;;4943239;29;20463;-69
2023/02/18 03:10:05;;;;;;;1.70;1.60;;;13.30;99.90;;;;;;4949209;28;20418;-68
2023/02/18 03:12:42;;;;;;;1.50;1.40;;;13.30;99.90;;;;;;4963197;28;20503;-69
2023/02/18 03:15:20;;;;;;;1.70;1.60;;;13.40;99.90;;;;;;4940184;28;20421;-70
2023/02/18 03:18:02;;;;;;;2.67;1.40;;;13.40;99.90;;;;;;4948223;29;20424;-70
2023/02/18 03:20:34;;;;;;;1.70;1.30;;;13.50;99.90;;;;;;4949067;28;20445;-70
2023/02/18 03:23:04;;;;;;;1.57;1.40;;;13.60;99.90;;;;;;4939393;29;21009;-69
2023/02/18 03:25:32;;;;;;;2.00;1.80;;;13.50;99.90;;;;;;4948730;28;20420;-71
2023/02/18 03:28:07;;;;;;;2.90;1.37;;;13.30;99.90;;;;;;4963220;28;20511;-71
2023/02/18 03:31:01;;;;;;;1.83;1.40;;;13.30;99.90;;;;;;4943828;28;20920;-74
2023/02/18 03:33:56;;;;;;;2.03;1.50;;;13.20;99.90;;;;;;4929528;29;20429;-71
2023/02/18 03:36:23;;;;;;;1.60;1.50;;;13.10;99.90;;;;;;4946841;29;20805;-71
2023/02/18 03:38:59;;;;;;;1.37;1.23;;;13.10;99.90;;;;;;4948418;28;20420;-71
2023/02/18 03:41:24;;;;;;;1.53;1.43;;;13.00;99.90;;;;;;4946961;28;20488;-71
2023/02/18 03:44:00;;;;;;;1.73;1.63;;;12.80;99.90;;;;;;4956593;28;21006;-74
2023/02/18 03:46:27;;;;;;;1.67;1.23;;;12.80;99.90;;;;;;4929200;29;20180;-71
2023/02/18 03:48:53;;;;;;;1.50;1.40;;;12.80;99.90;;;;;;4927976;29;20425;-73
2023/02/18 03:51:19;;;;;;;1.67;1.17;;;12.80;99.90;;;;;;4944673;28;20448;-69
2023/02/18 03:53:45;;;;;;;1.70;1.60;;;12.70;99.90;;;;;;4948422;28;20223;-70
2023/02/18 03:56:11;;;;;;;1.37;1.20;;;12.60;99.90;;;;;;4948075;28;20695;-69
2023/02/18 03:58:37;;;;;;;1.30;1.17;;;12.70;99.90;;;;;;4935255;28;20840;-72
2023/02/18 04:01:03;;;;;;;2.03;1.30;;;12.60;99.90;;;;;;4928610;29;20467;-70
2023/02/18 04:03:29;;;;;;;1.50;1.40;;;12.60;99.90;;;;;;4928866;29;20206;-69
2023/02/18 04:05:55;;;;;;;1.30;1.20;;;12.70;99.90;;;;;;4929215;29;20450;-70
2023/02/18 04:08:20;;;;;;;2.37;1.40;;;12.70;99.90;;;;;;4939465;29;20259;-69
2023/02/18 04:10:46;;;;;;;1.50;1.40;;;12.70;99.90;;;;;;4947992;28;20227;-69
2023/02/18 04:13:12;;;;;;;1.87;1.50;;;12.60;99.90;;;;;;4947100;28;20709;-75
2023/02/18 04:15:37;;;;;;;1.33;1.23;;;12.80;99.90;;;;;;4948069;28;20276;-72
2023/02/18 04:18:03;;;;;;;1.40;1.30;;;12.80;99.90;;;;;;4929435;29;21314;-71
2023/02/18 04:20:29;;;;;;;1.63;1.40;;;12.90;99.90;;;;;;4927692;29;20182;-70
2023/02/18 04:22:54;;;;;;;1.77;1.37;;;12.80;99.90;;;;;;4928731;29;20468;-70
2023/02/18 04:25:20;;;;;;;1.40;1.30;;;13.00;99.90;;;;;;4941780;29;20186;-70
2023/02/18 04:27:46;;;;;;;1.73;1.47;;;13.00;99.90;;;;;;4928533;29;20188;-73
2023/02/18 04:30:12;;;;;;;1.50;1.40;;;13.10;99.90;;;;;;4926839;29;20194;-70
2023/02/18 04:32:37;;;;;;;1.63;1.30;;;13.00;99.90;;;;;;4928675;29;20207;-71
2023/02/18 04:35:04;;;;;;;1.50;1.40;;;12.90;99.90;;;;;;4928253;28;20426;-70
2023/02/18 04:37:29;;;;;;;1.40;1.20;;;12.90;99.90;;;;;;4927290;29;20185;-71
2023/02/18 04:39:55;;;;;;;2.20;1.67;;;12.70;99.90;;;;;;4933386;29;20463;-72
2023/02/18 04:42:21;;;;;;;1.53;1.30;;;12.80;99.90;;;;;;4947391;28;20293;-74
2023/02/18 04:44:47;;;;;;;1.97;1.70;;;12.70;99.90;;;;;;4936408;28;20211;-72
2023/02/18 04:47:12;;;;;;;2.23;1.60;;;12.60;99.90;;;;;;4927141;29;20468;-73
2023/02/18 04:49:38;;;;;;;1.43;1.33;;;12.70;99.90;;;;;;4933557;29;20187;-72
2023/02/18 04:52:03;;;;;;;1.50;1.40;;;12.70;99.90;;;;;;4939471;28;20201;-70
2023/02/18 04:54:29;;;;;;;2.00;1.77;;;12.70;99.90;;;;;;4928152;29;20559;-71
2023/02/18 04:56:55;;;;;;;1.90;1.70;;;12.80;99.90;;;;;;4931997;29;20189;-74
2023/02/18 04:59:20;;;;;;;1.50;1.40;;;12.70;99.90;;;;;;4927705;29;20260;-71
2023/02/18 05:01:46;;;;;;;1.40;1.30;;;12.80;99.90;;;;;;4927647;29;20858;-70
2023/02/18 05:04:12;;;;;;;1.30;1.20;;;12.80;99.90;;;;;;4929369;29;20670;-70
2023/02/18 05:06:38;;;;;;;1.80;1.30;;;12.80;99.90;;;;;;4937974;29;20178;-70
2023/02/18 05:09:05;;;;;;;1.50;1.40;;;12.80;99.90;;;;;;4931104;28;20176;-73
2023/02/18 05:11:30;;;;;;;1.57;1.47;;;12.90;99.90;;;;;;4926373;29;20976;-71
2023/02/18 05:13:56;;;;;;;1.87;1.77;;;12.70;99.90;;;;;;4940012;29;20871;-71
2023/02/18 05:16:22;;;;;;;2.03;1.73;;;12.60;99.90;;;;;;4927912;29;20652;-71
2023/02/18 05:18:47;;;;;;;1.53;1.43;;;12.60;99.90;;;;;;4926872;29;20567;-75
2023/02/18 05:21:13;;;;;;;1.80;1.60;;;12.50;99.90;;;;;;4939130;29;20265;-71
2023/02/18 05:23:38;;;;;;;1.37;1.20;;;12.60;99.90;;;;;;4936574;29;20223;-70
2023/02/18 05:26:04;;;;;;;1.30;1.20;;;12.70;99.90;;;;;;4946888;28;20551;-70
2023/02/18 05:28:29;;;;;;;1.20;1.00;;;12.60;99.90;;;;;;4933572;28;20186;-70
2023/02/18 05:30:55;;;;;;;1.57;1.40;;;12.70;99.90;;;;;;4926951;29;20219;-70
2023/02/18 05:33:20;;;;;;;1.87;1.57;;;12.70;99.90;;;;;;4941999;29;20213;-69
2023/02/18 05:35:47;;;;;;;1.60;1.50;;;12.60;99.90;;;;;;4946704;28;20199;-71
2023/02/18 05:38:13;;;;;;;1.87;1.50;;;12.60;99.90;;;;;;4946760;28;20534;-71
2023/02/18 05:40:39;;;;;;;1.67;1.53;;;12.50;99.90;;;;;;4942213;28;20411;-74
2023/02/18 05:43:04;;;;;;;1.60;1.50;;;12.30;99.90;;;;;;4926580;29;20225;-71
2023/02/18 05:45:30;;;;;;;1.80;1.70;;;12.40;99.90;;;;;;4927326;29;20186;-70
2023/02/18 05:47:55;;;;;;;1.30;1.20;;;12.40;99.90;;;;;;4944004;29;20682;-72
2023/02/18 05:50:21;;;;;;;1.70;1.60;;;12.50;99.90;;;;;;4931041;28;20183;-70
2023/02/18 05:52:46;;;;;;;2.70;1.20;;;12.50;99.90;;;;;;4926282;29;20209;-70
2023/02/18 05:55:12;;;;;;;1.40;1.23;;;12.60;99.90;;;;;;4929671;29;20193;-72
2023/02/18 05:57:38;;;;;;;6.20;4.60;;;12.50;99.90;;;;;;4936972;28;20190;-70
2023/02/18 06:00:05;;;;;;;1.50;1.30;;;12.60;99.90;;;;;;4943654;29;20191;-68
2023/02/18 06:02:30;;;;;;;1.67;1.57;;;12.70;99.90;;;;;;4928022;28;20382;-73
2023/02/18 06:04:56;;;;;;;1.37;1.27;;;12.70;99.90;;;;;;4926023;29;20418;-71
2023/02/18 06:07:21;;;;;;;1.80;1.60;;;12.60;99.90;;;;;;4924772;29;20262;-70
2023/02/18 06:09:47;;;;;;;2.10;1.27;;;12.60;99.90;;;;;;4938378;29;20182;-70
2023/02/18 06:12:13;;;;;;;2.20;1.60;;;12.70;99.90;;;;;;4936166;28;20694;-74
2023/02/18 06:14:41;;;;;;;1.70;1.30;;;12.70;99.90;;;;;;4925928;29;21162;-70
2023/02/18 06:17:07;;;;;;;4.60;1.60;;;12.80;99.90;;;;;;4930840;29;20277;-70
2023/02/18 06:19:33;;;;;;;2.90;1.40;;;12.80;99.90;;;;;;4926022;29;20419;-71
2023/02/18 06:21:59;;;;;;;1.40;1.30;;;12.80;99.90;;;;;;4925793;29;20481;-71
2023/02/18 06:24:24;;;;;;;1.23;1.13;;;12.70;99.90;;;;;;4943770;29;20256;-70
2023/02/18 06:26:50;;;;;;;1.90;1.70;;;12.70;99.90;;;;;;4928354;29;20196;-72
2023/02/18 06:29:16;;;;;;;1.30;1.17;;;12.70;99.90;;;;;;4934625;29;20221;-69
2023/02/18 06:31:41;;;;;;;1.50;1.40;;;12.60;99.90;;;;;;4939274;28;20203;-70
2023/02/18 06:34:07;;;;;;;2.70;2.17;;;12.60;99.90;;;;;;4933596;29;20266;-72
2023/02/18 06:36:32;;;;;;;3.00;1.70;;;12.70;99.90;;;;;;4925780;29;20185;-70
2023/02/18 06:38:58;;;;;;;1.50;1.40;;;12.80;99.90;;;;;;4939522;29;20658;-70
2023/02/18 06:41:24;;;;;;;1.60;1.47;;;12.60;99.90;;;;;;4896260;28;1059892;-69
2023/02/18 06:43:50;;;;;;;2.70;1.90;;;12.80;99.90;;;;;;4930863;28;20425;-70
2023/02/18 06:46:15;;;;;;;1.50;1.40;;;12.80;99.90;;;;;;4930018;29;20424;-71
2023/02/18 06:48:41;;;;;;;1.83;1.27;;;12.80;99.90;;;;;;4932070;29;20420;-70
2023/02/18 06:51:07;;;;;;;1.40;1.30;;;12.90;99.90;;;;;;4934398;28;20182;-72
2023/02/18 06:53:33;;;;;;;1.70;1.30;;;12.80;99.90;;;;;;4930829;29;20638;-74
2023/02/18 06:55:58;;;;;;;1.40;1.30;;;13.00;99.90;;;;;;4930419;29;20660;-72
2023/02/18 06:58:24;;;;;;;1.80;1.43;;;13.10;99.90;;;;;;4930045;29;20509;-70
2023/02/18 07:00:50;;;;;;;1.70;1.60;;;13.00;99.90;;;;;;4929525;29;20205;-70
2023/02/18 07:03:16;;;;;;;1.97;1.60;;;13.10;99.90;;;;;;4938727;29;20290;-70
2023/02/18 07:05:41;;;;;;;2.03;1.33;;;13.10;99.90;;;;;;4948833;28;20704;-69
2023/02/18 07:08:07;;;;;;;1.30;1.20;;;12.90;99.90;;;;;;4947740;29;20529;-71
2023/02/18 07:10:33;;;;;;;1.77;1.67;;;13.00;99.90;;;;;;4937545;28;20184;-71
2023/02/18 07:12:58;;;;;;;1.50;1.40;;;13.20;99.90;;;;;;4934545;29;20201;-71
2023/02/18 07:15:25;;;;;;;1.80;1.70;;;13.30;99.90;;;;;;4939743;29;20264;-71
2023/02/18 07:17:51;;;;;;;2.10;1.73;;;13.30;99.90;;;;;;4948498;28;20212;-71
2023/02/18 07:20:18;;;;;;;1.93;1.77;;;13.20;99.90;;;;;;4949288;28;20428;-72
2023/02/18 07:22:44;;;;;;;2.10;1.60;;;13.00;99.90;;;;;;4943384;28;20656;-70
2023/02/18 07:25:09;;;;;;;1.70;1.60;;;13.00;99.90;;;;;;4928518;29;20429;-74
2023/02/18 07:27:35;;;;;;;2.03;1.50;;;12.90;99.90;;;;;;4929736;28;20178;-69
2023/02/18 07:30:00;;;;;;;2.20;2.00;;;13.00;99.90;;;;;;4929699;29;20200;-75
2023/02/18 07:32:26;;;;;;;2.00;1.80;;;13.10;99.90;;;;;;4927917;29;20200;-74
2023/02/18 07:34:52;;;;;;;1.77;1.63;;;13.20;99.90;;;;;;4929827;29;20191;-72
2023/02/18 07:37:19;;;;;;;1.43;1.33;;;13.30;99.90;;;;;;4944457;29;20216;-71
2023/02/18 07:39:45;;;;;;;1.80;1.70;;;13.40;99.90;;;;;;4947082;28;20713;-73
2023/02/18 07:42:11;;;;;;;1.97;1.77;;;13.40;99.90;;;;;;4948108;28;20472;-71
2023/02/18 07:44:37;;;;;;;2.00;1.80;;;13.30;99.90;;;;;;4929926;29;20466;-70
2023/02/18 07:47:05;;;;;;;1.60;1.50;;;13.30;99.90;;;;;;4930417;29;21163;-75
2023/02/18 07:49:31;;;;;;;2.37;2.00;;;13.30;99.90;;;;;;4934045;28;20421;-71
2023/02/18 07:51:57;;;;;;;1.70;1.60;;;13.30;99.90;;;;;;4929229;29;20741;-69
2023/02/18 07:54:23;;;;;;;2.63;1.90;;;13.30;99.90;;;;;;4930397;28;20407;-71
2023/02/18 07:56:49;;;;;;;2.00;1.80;;;13.40;99.90;;;;;;4928939;29;20444;-74
2023/02/18 07:59:15;;;;;;;2.63;1.90;;;13.60;99.90;;;;;;4945212;29;20802;-71
2023/02/18 08:01:41;;;;;;;1.80;1.60;;;13.80;99.90;;;;;;4936332;29;20212;-70
2023/02/18 08:04:07;;;;;;;2.27;1.67;;;13.90;99.90;;;;;;4962845;28;20799;-73
2023/02/18 08:06:41;;;;;;;2.37;1.83;;;13.80;99.90;;;;;;4941874;28;20533;-70
2023/02/18 08:09:07;;;;;;;2.50;2.10;;;13.80;99.90;;;;;;4932188;29;20498;-70
2023/02/18 08:11:33;;;;;;;2.43;1.93;;;13.90;99.90;;;;;;4944948;28;21058;-71
2023/02/18 08:13:58;;;;;;;1.80;1.70;;;13.90;99.90;;;;;;4937859;28;20198;-71
2023/02/18 08:16:25;;;;;;;1.80;1.60;;;13.80;99.90;;;;;;4947167;28;20275;-72
2023/02/18 08:18:51;;;;;;;1.70;1.60;;;13.80;99.90;;;;;;4947218;29;20598;-71
2023/02/18 08:21:18;;;;;;;1.97;1.83;;;13.80;99.90;;;;;;4943491;28;20885;-70
2023/02/18 08:23:44;;;;;;;1.77;1.60;;;14.00;99.90;;;;;;4943997;28;20429;-72
2023/02/18 08:26:10;;;;;;;1.60;1.50;;;13.90;99.90;;;;;;4943717;28;20419;-70
2023/02/18 08:28:36;;;;;;;3.77;1.33;;;14.10;99.90;;;;;;4942099;29;20413;-73
2023/02/18 08:31:02;;;;;;;2.50;1.57;;;14.10;99.90;;;;;;4934830;29;20931;-69
2023/02/18 08:33:27;;;;;;;1.97;1.77;;;14.20;99.90;;;;;;4944690;29;20182;-72
2023/02/18 08:35:54;;;;;;;1.60;1.50;;;14.40;99.90;;;;;;4946255;29;20668;-73
2023/02/18 08:38:21;;;;;;;1.73;1.60;;;14.40;99.90;;;;;;4929477;29;20177;-69
2023/02/18 08:40:47;;;;;;;1.50;1.40;;;14.40;99.90;;;;;;4933275;29;20416;-71
2023/02/18 08:43:13;;;;;;;1.93;1.63;;;14.40;99.90;;;;;;4931568;29;20866;-70
2023/02/18 08:45:39;;;;;;;1.90;1.60;;;14.40;99.90;;;;;;4929469;28;20216;-76
2023/02/18 08:48:07;;;;;;;1.80;1.57;;;14.10;99.90;;;;;;4928458;29;21255;-76
2023/02/18 08:50:33;;;;;;;2.23;1.60;;;14.20;99.90;;;;;;4928100;29;20413;-70
2023/02/18 08:53:02;;;;;;;1.60;1.50;;;14.30;99.90;;;;;;4930310;29;20448;-70
2023/02/18 08:55:31;;;;;;;1.27;1.17;;;14.30;99.90;;;;;;4934950;29;20439;-71
2023/02/18 08:57:57;;;;;;;2.10;1.70;;;14.30;99.90;;;;;;4928269;29;20417;-69
2023/02/18 09:00:23;;;;;;;1.63;1.30;;;14.20;99.90;;;;;;4928384;29;20426;-73
2023/02/18 09:02:48;;;;;;;2.50;1.37;;;14.50;99.90;;;;;;4928066;29;20216;-72
2023/02/18 09:05:14;;;;;;;1.87;1.60;;;14.40;99.90;;;;;;4945206;28;20503;-69
2023/02/18 09:07:40;;;;;;;2.10;1.90;;;14.40;99.90;;;;;;4947212;28;20178;-70
2023/02/18 09:10:06;;;;;;;1.57;1.47;;;14.40;99.90;;;;;;4940092;29;20186;-71
2023/02/18 09:12:32;;;;;;;3.03;1.30;;;14.50;99.90;;;;;;4931634;29;20346;-72
2023/02/18 09:14:59;;;;;;;1.53;1.43;;;14.60;99.90;;;;;;4933727;28;20510;-75
2023/02/18 09:17:25;;;;;;;1.40;1.20;;;14.50;99.90;;;;;;4940016;28;20709;-75
2023/02/18 09:19:50;;;;;;;2.07;1.30;;;14.60;99.90;;;;;;4932366;29;20900;-70
2023/02/18 09:22:16;;;;;;;1.70;1.37;;;14.60;99.90;;;;;;4946422;28;20460;-68
2023/02/18 09:24:42;;;;;;;1.83;1.40;;;14.70;99.90;;;;;;4931660;28;20322;-72
2023/02/18 09:27:08;;;;;;;1.30;1.20;;;14.90;99.90;;;;;;4940709;29;20417;-70
2023/02/18 09:29:36;;;;;;;1.80;1.33;;;15.00;99.90;;;;;;4940115;29;20191;-71
2023/02/18 09:32:03;;;;;;;1.53;1.30;;;15.10;99.90;;;;;;4936778;28;20209;-71
2023/02/18 09:34:28;;;;;;;1.60;1.30;;;15.20;99.90;;;;;;4946005;28;20420;-69
2023/02/18 09:36:54;;;;;;;1.70;1.40;;;15.10;99.90;;;;;;4946766;28;20578;-71
2023/02/18 09:39:20;;;;;;;1.93;1.10;;;15.20;99.90;;;;;;4930145;28;20186;-70
2023/02/18 09:41:45;;;;;;;1.27;1.17;;;15.20;99.90;;;;;;4926224;29;20221;-71
2023/02/18 09:44:20;;;;;;;1.60;1.50;;;14.80;99.90;;;;;;4941787;28;20195;-74
2023/02/18 09:46:53;;;;;;;2.03;1.40;;;14.80;99.90;;;;;;4927054;29;20176;-71
2023/02/18 09:49:25;;;;;;;1.60;1.50;;;14.90;99.90;;;;;;4926687;29;20742;-69
2023/02/18 09:51:52;;;;;;;2.60;1.20;;;14.80;99.90;;;;;;4926766;29;20452;-73
2023/02/18 09:54:19;;;;;;;2.53;1.70;;;15.00;99.90;;;;;;4929014;28;20490;-70
2023/02/18 09:56:46;;;;;;;1.43;1.10;;;14.90;99.90;;;;;;4927182;29;20429;-72
2023/02/18 09:59:18;;;;;;;1.63;1.50;;;14.90;99.90;;;;;;4928094;29;20948;-70
2023/02/18 10:01:46;;;;;;;2.00;1.30;;;14.80;99.90;;;;;;4927578;29;20608;-69
2023/02/18 10:04:18;;;;;;;2.00;1.50;;;14.90;99.90;;;;;;4926604;29;20414;-68
2023/02/18 10:06:49;;;;;;;2.10;1.40;;;14.90;99.90;;;;;;4925545;29;20422;-67
2023/02/18 10:09:19;;;;;;;1.53;1.40;;;14.90;99.90;;;;;;4927273;29;20414;-71
2023/02/18 10:11:49;;;;;;;1.93;1.70;;;14.90;99.90;;;;;;4944088;28;20452;-71
2023/02/18 10:14:15;;;;;;;2.77;1.57;;;15.00;99.90;;;;;;4937610;28;20929;-71
2023/02/18 10:16:45;;;;;;;2.80;2.03;;;15.00;99.90;;;;;;4928015;28;20417;-70
2023/02/18 10:19:44;;;;;;;2.20;1.90;;;15.10;99.90;;;;;;4929156;29;20265;-68
2023/02/18 10:22:13;;;;;;;2.77;1.67;;;14.90;99.90;;;;;;4944222;28;20481;-68
2023/02/18 10:24:52;;;;;;;1.67;1.23;;;15.00;99.90;;;;;;4927385;29;20429;-71
2023/02/18 10:27:25;;;;;;;2.00;1.60;;;15.10;99.90;;;;;;4926565;28;20425;-68
2023/02/18 10:29:51;;;;;;;2.20;1.53;;;15.00;99.90;;;;;;4927081;29;20420;-71
2023/02/18 10:32:36;;;;;;;2.00;1.77;;;15.00;99.90;;;;;;4926083;29;21242;-68
2023/02/18 10:35:16;;;;;;;4.17;1.43;;;15.00;99.90;;;;;;4930679;29;20877;-73
2023/02/18 10:38:28;;;;;;;2.30;1.20;;;14.90;99.90;;;;;;4935402;29;20420;-71
2023/02/18 10:41:04;;;;;;;1.43;0.93;;;15.00;99.90;;;;;;4927233;28;20520;-69
2023/02/18 10:43:42;;;;;;;3.60;2.23;;;15.10;99.90;;;;;;4940521;29;20438;-72
2023/02/18 10:46:37;;;;;;;1.90;1.70;;;15.20;99.90;;;;;;4933160;28;20422;-70
2023/02/18 10:49:15;;;;;;;1.73;1.30;;;15.30;99.90;;;;;;4941166;29;21022;-71
2023/02/18 10:51:50;;;;;;;4.53;1.50;;;15.40;99.90;;;;;;4937809;28;20808;-69
2023/02/18 10:54:15;;;;;;;2.63;1.73;;;15.60;99.90;;;;;;4928840;29;20418;-70
2023/02/18 10:56:50;;;;;;;1.60;1.30;;;15.60;99.90;;;;;;4945623;28;20432;-69
2023/02/18 10:59:31;;;;;;;2.40;1.33;;;15.50;99.90;;;;;;4934184;29;20331;-71
2023/02/18 11:02:00;;;;;;;3.57;1.13;;;15.60;99.90;;;;;;4940795;28;21006;-68
2023/02/18 11:04:35;;;;;;;4.27;2.10;;;15.50;99.90;;;;;;4943990;28;20843;-71
2023/02/18 11:07:14;;;;;;;1.93;0.90;;;15.80;99.90;;;;;;4945539;28;20472;-68
2023/02/18 11:09:46;;;;;;;1.17;0.90;;;15.80;99.90;;;;;;4942445;29;20432;-73
2023/02/18 11:12:26;;;;;;;4.27;1.20;;;15.90;99.90;;;;;;4945696;28;20815;-67
2023/02/18 11:15:04;;;;;;;4.60;1.43;;;16.10;99.90;;;;;;4942946;29;20519;-68
2023/02/18 11:17:32;;;;;;;7.00;1.90;;;16.00;99.90;;;;;;4926492;29;20426;-71
2023/02/18 11:20:00;;;;;;;2.97;1.47;;;15.90;99.90;;;;;;4941619;29;20955;-68
2023/02/18 11:22:31;;;;;;;1.37;1.17;;;15.90;99.90;;;;;;4931709;28;20521;-70
2023/02/18 11:25:00;;;;;;;1.60;1.50;;;16.00;99.90;;;;;;4926187;29;20433;-68
2023/02/18 11:27:43;;;;;;;2.63;1.40;;;16.00;99.90;;;;;;4944255;29;20701;-73
2023/02/18 11:30:25;;;;;;;4.20;1.17;;;15.70;99.90;;;;;;4942152;28;20426;-68
2023/02/18 11:32:55;;;;;;;1.30;1.07;;;15.60;99.90;;;;;;4949033;28;20496;-70
2023/02/18 11:35:27;;;;;;;3.00;1.33;;;15.80;99.90;;;;;;4945560;29;20420;-70
2023/02/18 11:37:54;;;;;;;1.50;1.20;;;15.90;99.90;;;;;;4946778;28;20440;-70
2023/02/18 11:40:35;;;;;;;1.40;1.30;;;15.90;99.90;;;;;;4939522;29;20846;-68
2023/02/18 11:43:10;;;;;;;4.33;1.40;;;15.70;99.90;;;;;;4943979;28;20972;-72
2023/02/18 11:45:36;;;;;;;2.13;1.23;;;15.50;99.90;;;;;;4930132;29;20461;-68
2023/02/18 11:48:22;;;;;;;2.23;2.03;;;15.60;99.90;;;;;;4930296;29;20450;-69
2023/02/18 11:50:52;;;;;;;2.60;1.30;;;15.70;99.90;;;;;;4943270;29;20181;-68
2023/02/18 11:53:26;;;;;;;3.30;1.20;;;15.70;99.90;;;;;;4964454;28;20483;-70
2023/02/18 11:55:57;;;;;;;2.23;1.77;;;15.90;99.90;;;;;;4934171;28;20414;-73
2023/02/18 11:58:24;;;;;;;1.60;1.50;;;15.90;99.90;;;;;;4942999;29;20620;-70
2023/02/18 12:00:52;;;;;;;3.83;1.20;;;16.00;99.90;;;;;;4941471;28;20487;-70
2023/02/18 12:03:57;;;;;;;1.10;1.00;;;15.70;99.90;;;;;;4929510;29;20462;-70
2023/02/18 12:06:30;;;;;;;1.10;1.00;;;15.70;99.90;;;;;;4930087;29;20407;-70
2023/02/18 12:09:27;;;;;;;1.20;1.07;;;15.80;99.90;;;;;;4946840;29;20428;-68
2023/02/18 12:11:59;;;;;;;2.63;1.40;;;15.70;99.90;;;;;;4941426;28;20808;-70
2023/02/18 12:14:25;;;;;;;1.83;1.03;;;15.80;99.90;;;;;;4943638;29;20413;-70
2023/02/18 12:17:11;;;;;;;6.23;1.73;;;16.00;99.90;;;;;;4938453;29;20410;-74
2023/02/18 12:20:05;;;;;;;1.33;1.23;;;16.00;99.90;;;;;;4929410;29;20179;-73
2023/02/18 12:22:50;;;;;;;1.87;1.30;;;16.00;99.90;;;;;;4932614;29;20462;-70
2023/02/18 12:25:25;;;;;;;1.40;1.20;;;16.00;99.90;;;;;;4942924;29;20412;-68
2023/02/18 12:28:05;;;;;;;2.07;1.30;;;16.40;99.90;;;;;;4948789;28;20423;-70
2023/02/18 12:30:40;;;;;;;1.23;1.00;;;16.50;99.90;;;;;;4930785;29;20811;-71
2023/02/18 12:33:32;;;;;;;2.13;1.50;;;16.80;99.90;;;;;;4944196;28;20460;-71
2023/02/18 12:36:14;;;;;;;1.40;1.23;;;17.10;99.90;;;;;;4927894;29;20936;-70
2023/02/18 12:38:54;;;;;;;3.87;1.37;;;16.80;99.90;;;;;;4943157;28;20426;-71
2023/02/18 12:41:51;;;;;;;1.30;1.20;;;16.50;99.90;;;;;;4941678;28;20467;-70
2023/02/18 12:44:57;;;;;;;1.50;1.40;;;16.40;99.90;;;;;;4934914;29;20421;-69
2023/02/18 12:47:35;;;;;;;1.93;1.13;;;16.30;99.90;;;;;;4928562;29;20497;-70
2023/02/18 12:50:21;;;;;;;2.33;1.50;;;16.40;99.90;;;;;;4935426;29;20875;-70
2023/02/18 12:53:14;;;;;;;6.03;1.97;;;16.30;99.90;;;;;;4928267;29;20445;-69
2023/02/18 12:56:08;;;;;;;2.33;1.60;;;16.40;99.90;;;;;;4938057;29;20944;-69
2023/02/18 12:58:43;;;;;;;2.77;1.77;;;16.40;99.90;;;;;;4947149;28;20439;-73
2023/02/18 13:01:28;;;;;;;1.73;1.63;;;16.60;99.90;;;;;;4941232;28;20476;-72
2023/02/18 13:04:16;;;;;;;1.97;1.80;;;16.80;99.90;;;;;;4934090;28;20434;-70
2023/02/18 13:07:01;;;;;;;3.97;1.90;;;16.50;99.90;;;;;;4941581;29;20405;-70
2023/02/18 13:10:00;;;;;;;2.93;1.60;;;16.40;99.90;;;;;;4957682;28;20411;-70